Mayview Park, North Carolina
Current Conditions -  °F | °C
As of 6:55 AM on Saturday 01 Nov 2014 (Local Time) from KTNB Reporting Station
Light Snow Light Snow  
Wind Chill: 22°   Ceiling: NA
Heat Index: 31°   Visibility: 2.5mi
Dew Point: 28°   Wind: 10mph
Humidity: 88%   Direction: 310°NW
Pressure: 29.77"   Gusts: NA
Location:  36.0473°N, 81.8148°W
Report Text: KTNB 011055Z AUTO 31009KT 2 1/2SM -SN M01/M02 A2977 RMK AO2 SKY OBSCURED T10061024
Loading
Personal Weather Stations






























Interactive Weather Map
Tropical Storm Tracking
New forecast layout! Learn more

10-Day Weather Forecast

Advertisements
Track Severe Weather on mobile